createdAt,value
2019-02-16T00:00:54.478Z,6.03
2019-02-16T00:03:23.767Z,5.85
2019-02-16T00:05:53.131Z,6.05
2019-02-16T00:08:22.370Z,6.03
2019-02-16T00:10:51.699Z,5.40
2019-02-16T00:13:21.003Z,5.87
2019-02-16T00:15:50.278Z,5.90
2019-02-16T00:18:19.626Z,5.97
2019-02-16T00:20:48.898Z,5.42
2019-02-16T00:23:18.149Z,5.75
2019-02-16T00:25:47.395Z,5.70
2019-02-16T00:28:16.672Z,5.85
2019-02-16T00:30:45.920Z,6.05
2019-02-16T00:33:15.195Z,6.10
2019-02-16T00:35:44.490Z,6.08
2019-02-16T00:38:13.746Z,6.25
2019-02-16T00:40:43.036Z,6.45
2019-02-16T00:43:12.271Z,6.58
2019-02-16T00:45:41.549Z,6.80
2019-02-16T00:48:10.819Z,6.85
2019-02-16T00:50:40.172Z,6.60
2019-02-16T00:53:09.469Z,6.42
2019-02-16T00:55:38.725Z,6.80
2019-02-16T00:58:08.008Z,6.70
2019-02-16T01:00:37.386Z,6.75
2019-02-16T01:03:06.676Z,6.50
2019-02-16T01:05:35.958Z,6.90
2019-02-16T01:08:05.201Z,6.62
2019-02-16T01:10:34.445Z,6.53
2019-02-16T01:13:03.724Z,6.25
2019-02-16T01:15:32.991Z,6.28
2019-02-16T01:18:02.256Z,6.70
2019-02-16T01:20:31.494Z,6.80
2019-02-16T01:23:00.797Z,6.72
2019-02-16T01:25:30.048Z,7.40
2019-02-16T01:27:59.305Z,6.47
2019-02-16T01:30:28.539Z,6.60
2019-02-16T01:32:57.950Z,7.00
2019-02-16T01:35:30.303Z,7.17
2019-02-16T01:37:59.574Z,7.65
2019-02-16T01:40:28.786Z,7.62
2019-02-16T01:42:58.059Z,7.53
2019-02-16T01:45:27.311Z,7.35
2019-02-16T01:47:56.599Z,8.75
2019-02-16T01:50:25.927Z,7.03
2019-02-16T01:52:55.180Z,7.20
2019-02-16T01:55:24.440Z,7.08
2019-02-16T01:57:53.680Z,6.95
2019-02-16T02:00:23.007Z,6.90
2019-02-16T02:02:52.255Z,6.97
2019-02-16T02:05:21.576Z,7.00
2019-02-16T02:07:50.834Z,6.80
2019-02-16T02:10:20.165Z,7.27
2019-02-16T02:12:49.375Z,7.12
2019-02-16T02:15:18.635Z,6.55
2019-02-16T02:17:48.125Z,7.05
2019-02-16T02:20:17.507Z,7.00
2019-02-16T02:22:46.768Z,7.37
2019-02-16T02:25:16.010Z,7.30
2019-02-16T02:27:45.220Z,7.10
2019-02-16T02:30:14.526Z,7.45
2019-02-16T02:32:43.812Z,7.30
2019-02-16T02:35:13.189Z,7.47
2019-02-16T02:37:42.425Z,7.60
2019-02-16T02:40:11.753Z,7.50
2019-02-16T02:42:41.197Z,8.00
2019-02-16T02:45:11.081Z,8.05
2019-02-16T02:47:40.356Z,7.83
2019-02-16T02:50:09.732Z,8.05
2019-02-16T02:52:38.935Z,8.13
2019-02-16T02:55:08.414Z,11.93
2019-02-16T02:57:37.689Z,9.70
2019-02-16T03:00:08.115Z,9.74
2019-02-16T03:02:37.375Z,9.30
2019-02-16T03:05:08.733Z,9.14
2019-02-16T03:07:37.954Z,8.60
2019-02-16T03:10:07.708Z,8.62
2019-02-16T03:12:37.015Z,8.53
2019-02-16T03:15:06.952Z,8.40
2019-02-16T03:17:36.319Z,8.68
2019-02-16T03:20:06.038Z,8.75
2019-02-16T03:23:12.635Z,8.50
2019-02-16T03:25:43.635Z,8.25
2019-02-16T03:28:38.873Z,8.30
2019-02-16T03:31:33.971Z,8.60
2019-02-16T03:34:09.370Z,8.73
2019-02-16T03:37:11.087Z,9.03
2019-02-16T03:39:44.043Z,9.00
2019-02-16T03:42:13.315Z,8.85
2019-02-16T03:44:42.556Z,9.03
2019-02-16T03:47:11.798Z,8.75
2019-02-16T03:49:41.041Z,8.78
2019-02-16T03:52:13.948Z,8.73
2019-02-16T03:54:41.472Z,8.75
2019-02-16T03:57:10.737Z,8.40
2019-02-16T03:59:40.033Z,7.78
2019-02-16T04:02:09.294Z,7.95
2019-02-16T04:04:38.565Z,7.97
2019-02-16T04:07:07.836Z,7.58
2019-02-16T04:09:37.103Z,8.43
2019-02-16T04:12:06.355Z,8.45
2019-02-16T04:14:35.628Z,8.55
2019-02-16T04:17:04.896Z,8.65
2019-02-16T04:19:34.114Z,9.13
2019-02-16T04:22:03.369Z,9.18
2019-02-16T04:24:32.637Z,9.70
2019-02-16T04:27:01.865Z,9.83
2019-02-16T04:29:31.248Z,9.43
2019-02-16T04:32:00.491Z,9.10
2019-02-16T04:34:32.492Z,9.18
2019-02-16T04:37:01.820Z,9.65
2019-02-16T04:39:31.072Z,9.53
2019-02-16T04:42:00.288Z,9.00
2019-02-16T04:44:29.501Z,9.18
2019-02-16T04:46:58.730Z,8.53
2019-02-16T04:49:28.009Z,9.60
2019-02-16T04:51:57.253Z,9.50
2019-02-16T04:54:26.501Z,9.33
2019-02-16T04:56:55.800Z,8.63
2019-02-16T04:59:25.157Z,8.75
2019-02-16T05:01:54.543Z,8.58
2019-02-16T05:04:23.853Z,8.90
2019-02-16T05:06:53.231Z,8.88
2019-02-16T05:09:22.448Z,8.48
2019-02-16T05:11:52.012Z,8.75
2019-02-16T05:14:21.266Z,8.80
2019-02-16T05:16:50.507Z,8.83
2019-02-16T05:19:19.697Z,9.15
2019-02-16T05:21:48.963Z,9.93
2019-02-16T05:24:18.269Z,11.05
2019-02-16T05:26:47.528Z,11.88
2019-02-16T05:29:16.841Z,11.68
2019-02-16T05:31:46.447Z,11.53
2019-02-16T05:34:15.685Z,11.18
2019-02-16T05:36:44.961Z,11.12
2019-02-16T05:39:14.185Z,10.03
2019-02-16T05:41:43.462Z,10.15
2019-02-16T05:44:12.701Z,10.72
2019-02-16T05:46:42.049Z,10.73
2019-02-16T05:49:11.269Z,10.20
2019-02-16T05:51:40.539Z,11.30
2019-02-16T05:54:09.753Z,11.15
2019-02-16T05:56:39.027Z,11.73
2019-02-16T05:59:08.374Z,11.53
2019-02-16T06:01:37.633Z,11.18
2019-02-16T06:04:06.962Z,11.83
2019-02-16T06:06:36.179Z,11.15
2019-02-16T06:09:06.347Z,10.72
2019-02-16T06:11:35.569Z,11.18
2019-02-16T06:14:04.956Z,11.88
2019-02-16T06:16:34.240Z,12.23
2019-02-16T06:19:03.605Z,11.68
2019-02-16T06:21:32.875Z,11.20
2019-02-16T06:24:02.745Z,10.58
2019-02-16T06:26:32.031Z,10.70
2019-02-16T06:29:01.329Z,11.45
2019-02-16T06:31:30.638Z,11.50
2019-02-16T06:33:59.932Z,11.08
2019-02-16T06:36:36.413Z,11.30
2019-02-16T06:39:06.431Z,10.72
2019-02-16T06:41:35.741Z,12.03
2019-02-16T06:44:05.003Z,11.18
2019-02-16T06:46:34.328Z,11.70
2019-02-16T06:49:03.613Z,11.63
2019-02-16T06:51:32.864Z,10.72
2019-02-16T06:54:02.168Z,10.65
2019-02-16T06:56:39.476Z,10.88
2019-02-16T06:59:08.754Z,10.40
2019-02-16T07:01:38.039Z,9.85
2019-02-16T07:04:07.389Z,10.75
2019-02-16T07:06:36.689Z,10.70
2019-02-16T07:09:06.608Z,10.15
2019-02-16T07:11:36.167Z,10.78
2019-02-16T07:14:05.678Z,11.15
2019-02-16T07:16:54.367Z,10.78
2019-02-16T07:19:45.407Z,11.20
2019-02-16T07:22:19.859Z,10.85
2019-02-16T07:24:49.116Z,11.70
2019-02-16T07:27:18.422Z,11.08
2019-02-16T07:29:47.720Z,11.28
2019-02-16T07:32:17.459Z,11.00
2019-02-16T07:34:46.720Z,10.88
2019-02-16T07:37:15.990Z,11.40
2019-02-16T07:39:45.299Z,12.07
2019-02-16T07:42:14.551Z,11.60
2019-02-16T07:44:51.825Z,11.75
2019-02-16T07:47:55.302Z,11.43
2019-02-16T07:50:41.717Z,11.77
2019-02-16T07:53:16.689Z,11.83
2019-02-16T07:55:52.853Z,11.55
2019-02-16T07:58:53.305Z,11.75
2019-02-16T08:01:38.052Z,12.95
2019-02-16T08:04:38.481Z,12.43
2019-02-16T08:07:29.501Z,13.62
2019-02-16T08:10:16.601Z,14.07
2019-02-16T08:12:53.266Z,13.40
2019-02-16T08:15:41.472Z,14.10
2019-02-16T08:18:34.570Z,13.68
2019-02-16T08:21:11.163Z,14.25
2019-02-16T08:23:58.541Z,14.03
2019-02-16T08:26:52.985Z,13.53
2019-02-16T08:29:47.268Z,13.28
2019-02-16T08:32:22.844Z,13.48
2019-02-16T08:35:11.046Z,13.72
2019-02-16T08:38:05.510Z,13.05
2019-02-16T08:40:42.928Z,12.68
2019-02-16T08:43:46.308Z,13.50
2019-02-16T08:46:40.694Z,14.40
2019-02-16T08:49:27.795Z,13.65
2019-02-16T08:52:14.323Z,13.50
2019-02-16T08:55:05.340Z,11.73
2019-02-16T08:57:52.179Z,12.37
2019-02-16T09:00:49.457Z,11.78
2019-02-16T09:03:52.869Z,11.25
2019-02-16T09:06:28.671Z,11.22
2019-02-16T09:09:25.305Z,11.63
2019-02-16T09:12:22.750Z,12.00
2019-02-16T09:15:09.270Z,12.35
2019-02-16T09:17:57.601Z,12.53
2019-02-16T09:20:57.917Z,12.90
2019-02-16T09:23:44.891Z,13.00
2019-02-16T09:26:45.258Z,13.08
2019-02-16T09:29:36.234Z,13.30
2019-02-16T09:32:24.562Z,12.63
2019-02-16T09:34:59.744Z,12.88
2019-02-16T09:37:46.874Z,13.03
2019-02-16T09:40:34.022Z,13.77
2019-02-16T09:43:14.163Z,13.62
2019-02-16T09:46:01.079Z,13.08
2019-02-16T09:48:35.507Z,13.80
2019-02-16T09:51:21.991Z,12.65
2019-02-16T09:54:10.500Z,12.73
2019-02-16T09:56:47.572Z,12.43
2019-02-16T09:59:30.966Z,12.43
2019-02-16T10:02:15.485Z,12.07
2019-02-16T10:05:06.349Z,11.88
2019-02-16T10:07:54.675Z,11.35
2019-02-16T10:10:30.384Z,11.10
2019-02-16T10:13:20.842Z,11.68
2019-02-16T10:16:03.943Z,12.80
2019-02-16T10:18:43.907Z,13.30
2019-02-16T10:21:32.196Z,12.93
2019-02-16T10:24:29.657Z,13.50
2019-02-16T10:27:27.241Z,13.65
2019-02-16T10:30:15.562Z,12.47
2019-02-16T10:33:02.662Z,13.00
2019-02-16T10:36:09.193Z,12.63
2019-02-16T10:39:08.426Z,12.80
2019-02-16T10:41:56.894Z,12.75
2019-02-16T10:44:48.095Z,13.68
2019-02-16T10:47:42.532Z,13.28
2019-02-16T10:50:36.802Z,13.35
2019-02-16T10:53:17.338Z,13.50
2019-02-16T10:56:20.799Z,14.73
2019-02-16T11:02:08.147Z,14.50
2019-02-16T11:04:59.342Z,14.38
2019-02-16T11:07:47.657Z,14.73
2019-02-16T11:10:34.698Z,14.40
2019-02-16T11:13:21.795Z,14.87
2019-02-16T11:16:08.968Z,14.78
2019-02-16T11:19:09.205Z,15.88
2019-02-16T11:22:04.385Z,15.98
2019-02-16T11:24:58.638Z,16.20
2019-02-16T11:27:49.982Z,17.07
2019-02-16T11:30:44.372Z,16.37
2019-02-16T11:33:38.781Z,14.80
2019-02-16T11:36:33.132Z,16.12
2019-02-16T11:39:14.805Z,16.23
2019-02-16T11:42:03.002Z,16.97
2019-02-16T11:44:51.253Z,16.27
2019-02-16T11:47:47.536Z,16.50
2019-02-16T11:50:35.665Z,16.13
2019-02-16T11:53:27.277Z,16.23
2019-02-16T11:56:13.521Z,16.52
2019-02-16T11:59:08.180Z,18.90
2019-02-16T12:01:47.009Z,23.75
2019-02-16T12:04:37.086Z,21.97
2019-02-16T12:07:15.989Z,17.48
2019-02-16T12:10:10.485Z,17.32
2019-02-16T12:13:07.957Z,17.12
2019-02-16T12:15:55.338Z,16.00
2019-02-16T12:18:35.409Z,17.15
2019-02-16T12:21:17.545Z,15.75
2019-02-16T12:23:56.940Z,15.90
2019-02-16T12:26:40.698Z,14.87
2019-02-16T12:29:29.605Z,15.10
2019-02-16T12:32:27.030Z,14.45
2019-02-16T12:35:13.806Z,14.80
2019-02-16T12:37:52.714Z,15.40
2019-02-16T12:40:28.230Z,15.20
2019-02-16T12:43:10.414Z,15.72
2019-02-16T12:48:54.298Z,14.23
2019-02-16T12:51:33.911Z,14.05
2019-02-16T12:54:25.165Z,16.93
2019-02-16T12:57:04.113Z,14.63
2019-02-16T12:59:51.138Z,14.80
2019-02-16T13:02:38.178Z,13.25
2019-02-16T13:05:31.003Z,13.88
2019-02-16T13:08:31.374Z,14.43
2019-02-16T13:11:10.062Z,13.18
2019-02-16T13:13:50.751Z,13.88
2019-02-16T13:16:38.927Z,14.20
2019-02-16T13:19:31.696Z,14.23
2019-02-16T13:29:26.743Z,17.48
2019-02-16T13:32:25.857Z,18.32
2019-02-16T13:35:08.322Z,16.90
2019-02-16T13:42:11.650Z,15.23
2019-02-16T13:44:58.777Z,14.55
2019-02-16T13:47:36.582Z,14.50
2019-02-16T13:50:20.357Z,14.98
2019-02-16T13:53:10.427Z,14.25
2019-02-16T13:56:04.669Z,14.65
2019-02-16T13:58:43.472Z,15.25
2019-02-16T14:01:32.762Z,15.18
2019-02-16T14:04:38.634Z,15.43
2019-02-16T14:07:25.386Z,14.80
2019-02-16T14:10:22.722Z,15.40
2019-02-16T14:13:29.095Z,15.53
2019-02-16T14:16:12.761Z,15.85
2019-02-16T14:18:43.306Z,17.67
2019-02-16T14:21:12.687Z,16.65
2019-02-16T14:23:41.974Z,17.25
2019-02-16T14:26:11.346Z,16.75
2019-02-16T14:28:40.638Z,16.02
2019-02-16T14:31:10.250Z,15.93
2019-02-16T14:33:39.532Z,15.55
2019-02-16T14:36:08.856Z,16.30
2019-02-16T14:38:46.238Z,15.70
2019-02-16T14:41:15.718Z,16.17
2019-02-16T14:43:45.032Z,16.00
2019-02-16T14:46:14.400Z,15.38
2019-02-16T14:48:43.657Z,15.63
2019-02-16T14:51:12.962Z,15.85
2019-02-16T14:53:42.402Z,16.87
2019-02-16T14:56:11.695Z,16.55
2019-02-16T14:58:40.977Z,15.30
2019-02-16T15:01:10.294Z,15.72
2019-02-16T15:03:39.671Z,16.25
2019-02-16T15:06:09.000Z,16.62
2019-02-16T15:08:38.395Z,15.00
2019-02-16T15:11:07.655Z,16.07
2019-02-16T15:13:36.982Z,16.35
2019-02-16T15:16:07.287Z,16.62
2019-02-16T15:18:36.657Z,16.55
2019-02-16T15:21:08.353Z,17.73
2019-02-16T15:23:38.628Z,18.95
2019-02-16T15:26:08.084Z,18.67
2019-02-16T15:28:37.547Z,20.30
2019-02-16T15:31:06.849Z,16.80
2019-02-16T15:33:36.219Z,16.60
2019-02-16T15:36:05.712Z,17.85
2019-02-16T15:38:35.101Z,18.23
2019-02-16T15:41:04.415Z,22.98
2019-02-16T15:43:33.801Z,21.00
2019-02-16T15:46:03.154Z,18.60
2019-02-16T15:48:32.555Z,18.12
2019-02-16T15:51:01.800Z,17.48
2019-02-16T15:53:31.158Z,17.07
2019-02-16T15:56:09.857Z,17.12
2019-02-16T15:58:31.623Z,17.17
2019-02-16T16:01:01.045Z,17.40
2019-02-16T16:03:32.141Z,17.55
2019-02-16T16:06:01.437Z,18.82
2019-02-16T16:08:49.711Z,19.42
2019-02-16T16:11:44.065Z,19.70
2019-02-16T16:14:35.406Z,18.95
2019-02-16T16:17:29.461Z,18.17
2019-02-16T16:20:24.362Z,19.30
2019-02-16T16:23:27.947Z,20.45
2019-02-16T16:26:05.153Z,19.23
2019-02-16T16:29:02.314Z,22.42
2019-02-16T16:31:56.626Z,21.70
2019-02-16T16:34:43.916Z,22.90
2019-02-16T16:37:37.994Z,19.95
2019-02-16T16:40:22.667Z,19.67
2019-02-16T16:43:10.931Z,19.02
2019-02-16T16:45:47.642Z,18.92
2019-02-16T16:48:28.748Z,21.60
2019-02-16T16:51:15.994Z,22.40
2019-02-16T16:54:09.085Z,20.48
2019-02-16T16:57:00.507Z,19.50
2019-02-16T16:59:57.920Z,33.08
2019-02-16T17:02:44.862Z,27.93
2019-02-16T17:05:33.157Z,23.50
2019-02-16T17:08:24.657Z,83.87
2019-02-16T17:11:24.611Z,24.57
2019-02-16T17:14:11.740Z,19.90
2019-02-16T17:17:01.178Z,38.48
2019-02-16T17:19:40.843Z,34.88
2019-02-16T17:22:29.119Z,31.52
2019-02-16T17:25:22.479Z,25.35
2019-02-16T17:28:09.671Z,26.48
2019-02-16T17:30:51.488Z,23.27
2019-02-16T17:33:33.074Z,26.99
2019-02-16T17:36:20.222Z,30.48
2019-02-16T17:39:10.964Z,25.35
2019-02-16T17:42:02.348Z,22.75
2019-02-16T17:45:03.126Z,21.85
2019-02-16T17:47:57.035Z,23.30
2019-02-16T17:50:54.671Z,25.10
2019-02-16T17:53:48.918Z,24.07
2019-02-16T17:56:26.463Z,23.18
2019-02-16T17:59:02.570Z,22.90
2019-02-16T18:02:05.932Z,23.47
2019-02-16T18:07:40.241Z,28.85
2019-02-16T18:10:15.850Z,47.58
2019-02-16T18:13:03.000Z,33.92
2019-02-16T18:15:42.092Z,31.33
2019-02-16T18:18:30.458Z,31.17
2019-02-16T18:21:21.784Z,30.88
2019-02-16T18:24:08.367Z,30.90
2019-02-16T18:26:59.590Z,29.37
2019-02-16T18:30:00.027Z,30.02
2019-02-16T18:32:47.001Z,28.27
2019-02-16T18:35:34.231Z,31.52
2019-02-16T18:38:16.524Z,34.33
2019-02-16T18:41:03.647Z,34.13
2019-02-16T18:44:12.719Z,31.20
2019-02-16T18:47:08.356Z,29.42
2019-02-16T18:49:44.978Z,26.77
2019-02-16T18:52:39.377Z,26.77
2019-02-16T18:55:22.888Z,25.92
2019-02-16T18:58:09.801Z,26.25
2019-02-16T19:00:55.312Z,24.40
2019-02-16T19:03:52.588Z,26.75
2019-02-16T19:06:45.019Z,26.23
2019-02-16T19:09:30.171Z,20.75
2019-02-16T19:12:32.454Z,27.20
2019-02-16T19:15:27.455Z,26.85
2019-02-16T19:18:18.565Z,33.18
2019-02-16T19:21:07.775Z,70.95
2019-02-16T19:23:44.845Z,40.65
2019-02-16T19:26:40.799Z,42.55
2019-02-16T19:29:43.988Z,39.33
2019-02-16T19:32:40.780Z,43.63
2019-02-16T19:35:57.054Z,42.80
2019-02-16T19:38:40.850Z,35.43
2019-02-16T19:41:57.003Z,28.98
2019-02-16T19:44:41.250Z,29.55
2019-02-16T19:47:29.762Z,30.08
2019-02-16T19:50:40.901Z,30.20
2019-02-16T19:53:13.957Z,30.02
2019-02-16T19:56:07.842Z,31.77
2019-02-16T19:58:59.159Z,32.45
2019-02-16T20:01:50.591Z,30.77
2019-02-16T20:04:57.297Z,31.12
2019-02-16T20:07:39.711Z,29.05
2019-02-16T20:10:40.490Z,29.32
2019-02-16T20:13:38.209Z,28.38
2019-02-16T20:16:27.605Z,28.45
2019-02-16T20:19:34.486Z,29.82
2019-02-16T20:22:21.629Z,29.67
2019-02-16T20:25:19.272Z,32.55
2019-02-16T20:27:59.246Z,31.73
2019-02-16T20:30:50.579Z,31.95
2019-02-16T20:33:48.168Z,32.67
2019-02-16T20:36:34.904Z,33.02
2019-02-16T20:39:23.194Z,32.33
2019-02-16T20:42:04.084Z,30.43
2019-02-16T20:44:43.079Z,30.52
2019-02-16T20:47:38.013Z,32.75
2019-02-16T20:50:30.132Z,29.87
2019-02-16T20:53:17.319Z,34.10
2019-02-16T20:56:11.463Z,31.35
2019-02-16T20:59:03.751Z,32.53
2019-02-16T21:01:52.263Z,34.00
2019-02-16T21:04:32.844Z,34.48
2019-02-16T21:07:30.458Z,33.63
2019-02-16T21:10:17.406Z,34.40
2019-02-16T21:13:05.799Z,36.05
2019-02-16T21:15:40.848Z,35.03
2019-02-16T21:18:26.198Z,35.60
2019-02-16T21:21:14.665Z,36.40
2019-02-16T21:23:59.591Z,36.73
2019-02-16T21:26:39.865Z,33.85
2019-02-16T21:29:17.884Z,34.25
2019-02-16T21:32:12.269Z,37.08
2019-02-16T21:35:03.496Z,37.13
2019-02-16T21:37:55.108Z,37.93
2019-02-16T21:40:33.627Z,37.93
2019-02-16T21:43:24.789Z,37.00
2019-02-16T21:46:12.160Z,36.60
2019-02-16T21:48:47.442Z,37.10
2019-02-16T21:51:34.416Z,35.83
2019-02-16T21:54:13.115Z,36.20
2019-02-16T21:57:07.508Z,35.52
2019-02-16T21:59:59.041Z,34.85
2019-02-16T22:02:47.299Z,34.45
2019-02-16T22:05:35.575Z,35.60
2019-02-16T22:08:32.082Z,34.95
2019-02-16T22:11:23.684Z,35.10
2019-02-16T22:13:53.019Z,36.28
2019-02-16T22:16:22.377Z,35.20
2019-02-16T22:18:51.698Z,33.98
2019-02-16T22:21:21.009Z,34.03
2019-02-16T22:23:50.308Z,33.30
2019-02-16T22:26:19.652Z,33.58
2019-02-16T22:28:49.006Z,34.73
2019-02-16T22:31:18.364Z,35.60
2019-02-16T22:33:47.650Z,38.35
2019-02-16T22:36:17.023Z,37.23
2019-02-16T22:38:46.299Z,39.70
2019-02-16T22:41:15.614Z,39.18
2019-02-16T22:43:44.983Z,37.83
2019-02-16T22:46:14.233Z,37.95
2019-02-16T22:48:43.509Z,39.10
2019-02-16T22:51:12.862Z,40.15
2019-02-16T22:53:42.139Z,41.68
2019-02-16T22:56:11.437Z,45.03
2019-02-16T22:58:40.880Z,44.13
2019-02-16T23:01:10.603Z,42.53
2019-02-16T23:03:39.898Z,42.17
2019-02-16T23:06:09.302Z,41.65
2019-02-16T23:08:38.723Z,42.85
2019-02-16T23:11:08.082Z,44.93
2019-02-16T23:13:37.515Z,55.67
2019-02-16T23:16:06.845Z,50.40
2019-02-16T23:18:36.116Z,50.00
2019-02-16T23:21:05.445Z,50.73
2019-02-16T23:23:34.914Z,50.67
2019-02-16T23:26:04.329Z,51.95
2019-02-16T23:28:39.001Z,52.03
2019-02-16T23:31:04.648Z,53.92
2019-02-16T23:33:33.927Z,54.33
2019-02-16T23:36:03.258Z,55.55
2019-02-16T23:38:32.525Z,54.67
2019-02-16T23:41:01.800Z,50.25
2019-02-16T23:43:31.062Z,51.68
2019-02-16T23:46:00.329Z,52.10
2019-02-16T23:48:29.680Z,52.43
2019-02-16T23:50:58.940Z,48.87
2019-02-16T23:53:28.244Z,50.98
2019-02-16T23:55:57.520Z,50.05
2019-02-16T23:58:26.800Z,51.65
